Time;durP1;ratioP1;P1;durP2;ratioP2;P2;SDS_P1;SDS_P2;PMS_P1;PMS_P2;Temp;Humidity;BMP_temperature;BMP_pressure;BME280_temperature;BME280_humidity;BME280_pressure;Samples;Min_cycle;Max_cycle;Signal;HPM_P1;HPM_P2
2022/01/09 00:01:44;;;;;;;22.45;9.40;;;;;;;3.31;86.47;93836.69;5111057;28;20629;-72
2022/01/09 00:04:11;;;;;;;23.40;11.30;;;;;;;3.33;86.45;93831.06;5110522;28;20201;-72
2022/01/09 00:06:40;;;;;;;19.02;9.23;;;;;;;3.44;86.44;93835.88;5110600;28;20246;-72
2022/01/09 00:09:07;;;;;;;17.55;8.00;;;;;;;3.29;86.11;93828.19;5110146;28;20232;-72
2022/01/09 00:11:34;;;;;;;12.65;7.38;;;;;;;3.36;86.31;93831.25;5110737;28;20229;-72
2022/01/09 00:14:01;;;;;;;21.02;8.60;;;;;;;3.35;86.45;93837.69;5110826;28;20198;-72
2022/01/09 00:16:27;;;;;;;20.40;10.00;;;;;;;3.34;86.50;93836.09;5110940;28;20213;-72
2022/01/09 00:18:54;;;;;;;18.60;8.07;;;;;;;3.28;86.71;93831.19;5110949;28;20609;-72
2022/01/09 00:21:21;;;;;;;19.67;8.35;;;;;;;3.31;86.90;93834.03;5111164;28;20190;-71
2022/01/09 00:23:50;;;;;;;22.13;10.13;;;;;;;3.33;86.93;93829.16;5111212;28;20646;-72
2022/01/09 00:26:16;;;;;;;20.40;10.05;;;;;;;3.30;86.88;93832.44;5097368;28;20201;-72
2022/01/09 00:28:43;;;;;;;16.95;8.60;;;;;;;3.43;87.26;93828.94;5110088;28;20640;-73
2022/01/09 00:31:10;;;;;;;20.80;10.40;;;;;;;3.44;86.86;93827.84;5110420;28;20233;-72
2022/01/09 00:33:37;;;;;;;17.20;8.73;;;;;;;3.36;86.54;93828.56;5110750;28;20662;-72
2022/01/09 00:36:04;;;;;;;23.27;9.57;;;;;;;3.36;86.56;93817.88;5112075;28;20213;-71
2022/01/09 00:38:31;;;;;;;20.20;8.93;;;;;;;3.43;86.62;93818.22;5114006;28;20212;-73
2022/01/09 00:41:00;;;;;;;17.85;8.13;;;;;;;3.44;86.48;93819.81;5114336;28;20276;-73
2022/01/09 00:43:27;;;;;;;21.70;11.32;;;;;;;3.44;86.72;93814.47;5099802;28;20263;-73
2022/01/09 00:45:54;;;;;;;26.73;13.15;;;;;;;3.53;86.37;93818.00;5102580;28;20205;-73
2022/01/09 00:48:20;;;;;;;19.08;8.43;;;;;;;3.54;85.86;93808.88;5114046;28;20217;-72
2022/01/09 00:50:47;;;;;;;15.98;8.25;;;;;;;3.69;85.30;93804.28;5114568;28;20237;-72
2022/01/09 00:53:14;;;;;;;22.88;9.35;;;;;;;3.54;85.65;93803.53;5114155;28;20201;-72
2022/01/09 00:55:41;;;;;;;20.20;8.70;;;;;;;3.53;85.60;93801.94;5114094;28;20359;-71
2022/01/09 00:58:09;;;;;;;16.25;7.80;;;;;;;3.64;85.55;93807.84;5114244;28;20206;-71
2022/01/09 01:00:39;;;;;;;16.95;8.75;;;;;;;3.63;85.74;93818.88;5113774;28;20206;-72
2022/01/09 01:03:06;;;;;;;17.60;8.60;;;;;;;3.53;85.95;93818.00;5113801;28;20202;-72
2022/01/09 01:05:33;;;;;;;18.45;9.90;;;;;;;3.48;86.52;93820.00;5114080;28;20210;-72
2022/01/09 01:08:00;;;;;;;16.60;8.73;;;;;;;3.48;86.27;93825.34;5113883;28;20213;-72
2022/01/09 01:10:27;;;;;;;17.55;7.95;;;;;;;3.44;86.18;93806.44;5113807;28;20629;-72
2022/01/09 01:12:54;;;;;;;17.70;8.73;;;;;;;3.51;85.64;93804.13;5113750;28;20561;-72
2022/01/09 01:15:22;;;;;;;20.17;9.52;;;;;;;3.28;86.69;93797.16;5113913;28;20213;-72
2022/01/09 01:17:49;;;;;;;14.65;7.18;;;;;;;3.23;86.81;93783.91;5114053;28;20209;-72
2022/01/09 01:20:20;;;;;;;18.02;7.75;;;;;;;3.08;88.00;93794.94;5113752;28;20205;-73
2022/01/09 01:22:49;;;;;;;16.77;7.93;;;;;;;3.03;88.13;93803.06;5112822;28;20200;-72
2022/01/09 01:25:16;;;;;;;14.10;7.40;;;;;;;3.03;88.29;93792.38;5113574;28;20284;-73
2022/01/09 01:27:43;;;;;;;17.40;8.05;;;;;;;3.13;87.76;93789.50;5113463;28;20657;-73
2022/01/09 01:30:11;;;;;;;17.83;8.27;;;;;;;3.04;88.21;93788.59;5113143;28;20228;-72
2022/01/09 01:32:40;;;;;;;18.27;8.82;;;;;;;3.09;88.09;93785.84;5094051;28;20210;-72
2022/01/09 01:35:08;;;;;;;19.20;8.88;;;;;;;3.10;88.03;93787.41;5092677;28;20611;-72
2022/01/09 01:37:38;;;;;;;15.32;7.93;;;;;;;3.14;88.31;93785.72;5092765;28;20440;-72
2022/01/09 01:40:06;;;;;;;21.27;8.75;;;;;;;3.25;87.51;93784.41;5092893;28;20265;-72
2022/01/09 01:42:33;;;;;;;16.20;7.90;;;;;;;3.16;87.39;93770.94;5092128;28;20241;-73
2022/01/09 01:45:00;;;;;;;15.38;7.82;;;;;;;3.23;86.98;93770.53;5093508;28;20210;-72
2022/01/09 01:47:27;;;;;;;16.48;7.50;;;;;;;3.22;87.46;93768.94;5113142;28;20209;-72
2022/01/09 01:49:55;;;;;;;17.55;8.13;;;;;;;3.14;87.61;93767.00;5113060;28;20201;-72
2022/01/09 01:52:28;;;;;;;18.02;8.30;;;;;;;3.21;87.64;93764.69;5112875;28;20201;-72
2022/01/09 01:54:56;;;;;;;17.10;7.50;;;;;;;3.18;87.36;93762.59;5113487;28;20270;-72
2022/01/09 01:57:23;;;;;;;15.00;7.55;;;;;;;3.28;87.06;93750.91;5112824;28;20233;-72
2022/01/09 01:59:50;;;;;;;14.90;7.43;;;;;;;3.22;87.42;93747.53;5112834;28;20268;-72
2022/01/09 02:02:17;;;;;;;17.63;8.15;;;;;;;3.28;86.74;93754.34;5111762;28;20242;-72
2022/01/09 02:04:44;;;;;;;13.23;7.10;;;;;;;3.25;87.30;93749.63;5112163;28;20202;-71
2022/01/09 02:07:12;;;;;;;16.00;7.07;;;;;;;3.28;87.75;93750.91;5112430;28;20208;-71
2022/01/09 02:09:39;;;;;;;13.75;7.15;;;;;;;3.25;86.97;93741.59;5112815;28;20237;-73
2022/01/09 02:12:07;;;;;;;12.70;7.13;;;;;;;3.34;86.04;93734.41;5112508;28;20608;-72
2022/01/09 02:14:36;;;;;;;11.90;6.78;;;;;;;3.34;86.51;93729.06;5112085;28;20205;-72
2022/01/09 02:17:03;;;;;;;14.80;7.03;;;;;;;3.38;86.21;93727.34;5112039;28;20202;-72
2022/01/09 02:19:29;;;;;;;16.55;7.28;;;;;;;3.37;86.06;93727.66;5112639;28;20212;-71
2022/01/09 02:21:59;;;;;;;16.05;7.05;;;;;;;3.33;86.03;93727.47;5112534;28;20201;-73
2022/01/09 02:24:26;;;;;;;14.18;6.72;;;;;;;3.19;86.45;93724.84;5094069;28;20646;-73
2022/01/09 02:26:53;;;;;;;16.27;7.78;;;;;;;3.02;86.87;93721.25;5092225;28;20206;-72
2022/01/09 02:29:20;;;;;;;14.10;7.88;;;;;;;2.95;87.58;93718.22;5092203;28;20213;-71
2022/01/09 02:31:47;;;;;;;16.02;7.47;;;;;;;2.97;87.61;93702.66;5091924;28;20736;-72
2022/01/09 02:34:14;;;;;;;24.92;12.88;;;;;;;2.89;87.86;93703.34;5110532;28;20281;-72
2022/01/09 02:36:41;;;;;;;22.92;12.35;;;;;;;2.79;88.54;93697.16;5111996;28;20201;-71
2022/01/09 02:39:09;;;;;;;23.33;11.15;;;;;;;2.80;88.63;93698.72;5112310;28;20201;-71
2022/01/09 02:41:36;;;;;;;22.33;12.68;;;;;;;2.87;88.12;93697.53;5112179;28;20263;-72
2022/01/09 02:44:08;;;;;;;21.85;9.90;;;;;;;2.84;88.86;93693.59;5091998;28;20685;-71
2022/01/09 02:46:45;;;;;;;15.10;8.80;;;;;;;2.61;89.74;93682.03;5091753;28;20202;-71
2022/01/09 02:49:12;;;;;;;16.77;9.15;;;;;;;2.49;90.51;93676.44;5091603;28;20503;-73
2022/01/09 02:51:40;;;;;;;19.77;9.52;;;;;;;2.58;90.75;93684.53;5091459;28;20234;-72
2022/01/09 02:56:49;;;;;;;21.98;10.35;;;;;;;2.85;90.53;93690.59;5091092;28;20213;-72
2022/01/09 02:59:16;;;;;;;21.55;10.43;;;;;;;2.90;89.92;93686.22;5090939;28;20195;-71
2022/01/09 03:01:43;;;;;;;22.83;9.68;;;;;;;2.88;88.71;93689.19;5110477;28;20197;-71
2022/01/09 03:04:10;;;;;;;20.83;10.82;;;;;;;2.88;89.27;93675.03;5111458;28;20202;-72
2022/01/09 03:06:37;;;;;;;16.08;8.50;;;;;;;2.93;89.09;93677.59;5111231;28;20201;-72
2022/01/09 03:09:06;;;;;;;18.98;8.52;;;;;;;2.93;89.18;93666.91;5111628;28;20229;-72
2022/01/09 03:11:37;;;;;;;16.42;9.15;;;;;;;2.81;88.40;93673.59;5111636;28;20438;-72
2022/01/09 03:14:04;;;;;;;19.85;8.43;;;;;;;2.74;88.52;93667.84;5111814;28;20652;-72
2022/01/09 03:16:31;;;;;;;17.80;8.30;;;;;;;2.76;88.75;93664.88;5111585;28;20212;-72
2022/01/09 03:18:57;;;;;;;18.33;8.05;;;;;;;2.88;88.38;93657.09;5111589;28;20552;-72
2022/01/09 03:21:24;;;;;;;18.80;7.88;;;;;;;2.73;88.69;93658.25;5097981;28;20190;-72
2022/01/09 03:23:51;;;;;;;14.02;7.88;;;;;;;2.76;89.03;93659.53;5111710;28;20225;-72
2022/01/09 03:26:18;;;;;;;20.15;9.85;;;;;;;2.77;88.98;93661.91;5111474;28;20209;-72
2022/01/09 03:28:46;;;;;;;14.35;7.07;;;;;;;2.93;88.30;93659.66;5110986;28;20205;-72
2022/01/09 03:31:13;;;;;;;16.95;7.72;;;;;;;2.93;88.18;93664.22;5111484;28;20727;-72
2022/01/09 03:33:40;;;;;;;16.20;7.75;;;;;;;2.96;88.47;93669.75;5111649;28;20201;-72
2022/01/09 03:36:07;;;;;;;13.35;7.07;;;;;;;3.06;88.01;93663.38;5111217;28;20205;-72
2022/01/09 03:38:34;;;;;;;16.27;7.28;;;;;;;3.08;87.96;93667.34;5110742;28;20669;-72
2022/01/09 03:41:01;;;;;;;23.45;7.90;;;;;;;3.09;87.59;93657.41;5111920;28;20237;-74
2022/01/09 03:43:28;;;;;;;13.18;6.53;;;;;;;3.21;87.89;93652.31;5111827;28;20202;-72
2022/01/09 03:45:56;;;;;;;12.38;6.82;;;;;;;3.40;87.50;93655.59;5103634;28;20209;-72
2022/01/09 03:48:23;;;;;;;14.23;8.27;;;;;;;3.48;87.15;93654.81;5091196;28;20691;-73
2022/01/09 03:50:52;;;;;;;15.80;7.68;;;;;;;3.44;87.25;93653.06;5091471;28;20238;-73
2022/01/09 03:53:19;;;;;;;12.75;6.63;;;;;;;3.38;86.89;93644.38;5091439;28;20660;-72
2022/01/09 03:55:46;;;;;;;13.75;6.25;;;;;;;3.37;86.66;93632.09;5091704;28;20202;-72
2022/01/09 03:58:12;;;;;;;17.35;8.13;;;;;;;3.39;86.88;93635.25;5091451;28;20257;-72
2022/01/09 04:00:39;;;;;;;11.13;5.80;;;;;;;3.41;87.34;93638.44;5100936;28;20205;-72
2022/01/09 04:03:08;;;;;;;12.55;5.95;;;;;;;3.46;87.33;93640.97;5110998;28;20576;-72
2022/01/09 04:05:35;;;;;;;13.65;7.63;;;;;;;3.41;87.06;93635.75;5111340;28;20213;-73
2022/01/09 04:08:02;;;;;;;18.73;8.27;;;;;;;3.46;86.96;93635.59;5110713;28;20279;-75
2022/01/09 04:10:30;;;;;;;14.43;7.22;;;;;;;3.28;87.35;93639.28;5112738;28;20205;-73
2022/01/09 04:13:00;;;;;;;13.98;6.30;;;;;;;3.39;87.81;93640.63;5115121;28;20274;-73
2022/01/09 04:15:28;;;;;;;22.00;11.75;;;;;;;3.43;87.39;93646.91;5115376;28;20266;-73
2022/01/09 04:17:56;;;;;;;14.38;7.97;;;;;;;3.41;87.40;93643.78;5114625;28;20263;-73
2022/01/09 04:20:27;;;;;;;14.75;7.43;;;;;;;3.42;87.54;93642.66;5115636;28;20206;-73
2022/01/09 04:22:55;;;;;;;17.20;7.15;;;;;;;3.56;86.85;93640.69;5108787;28;20206;-73
2022/01/09 04:25:22;;;;;;;19.65;6.78;;;;;;;3.61;86.86;93641.66;5094090;28;20226;-73
2022/01/09 04:27:51;;;;;;;15.23;8.18;;;;;;;3.56;87.53;93635.34;5093402;28;20825;-73
2022/01/09 04:30:18;;;;;;;14.13;7.05;;;;;;;3.77;87.38;93640.16;5094317;28;20643;-73
2022/01/09 04:32:45;;;;;;;11.68;6.72;;;;;;;3.87;86.59;93639.88;5100557;28;20236;-72
2022/01/09 04:35:13;;;;;;;14.38;7.60;;;;;;;3.93;85.11;93622.56;5114410;28;20568;-72
2022/01/09 04:37:41;;;;;;;14.23;6.93;;;;;;;3.93;85.67;93622.56;5113351;28;20673;-73
2022/01/09 04:40:12;;;;;;;14.35;7.47;;;;;;;3.94;85.81;93613.44;5114268;28;20293;-72
2022/01/09 04:42:43;;;;;;;17.38;7.65;;;;;;;3.91;84.81;93617.53;5101345;28;20696;-71
2022/01/09 04:45:11;;;;;;;24.20;10.00;;;;;;;3.87;85.46;93623.81;5114607;28;20200;-72
2022/01/09 04:47:40;;;;;;;18.88;7.50;;;;;;;3.55;86.94;93633.75;5114264;27;20228;-72
2022/01/09 04:50:10;;;;;;;16.60;9.00;;;;;;;3.36;87.27;93633.19;5114423;28;20206;-72
2022/01/09 04:52:39;;;;;;;14.50;7.53;;;;;;;3.29;87.42;93646.22;5114476;28;20813;-72
2022/01/09 04:55:08;;;;;;;12.38;6.63;;;;;;;3.28;88.08;93644.63;5114332;28;20284;-72
2022/01/09 04:57:35;;;;;;;15.15;7.50;;;;;;;3.52;87.59;93639.75;5113807;28;20201;-72
2022/01/09 05:00:02;;;;;;;15.82;6.38;;;;;;;3.69;86.78;93638.25;5114555;28;20637;-72
2022/01/09 05:02:29;;;;;;;11.38;6.32;;;;;;;3.74;86.68;93630.84;5114542;28;20399;-72
2022/01/09 05:04:56;;;;;;;13.77;7.70;;;;;;;3.71;86.68;93636.81;5114098;28;20202;-73
2022/01/09 05:07:23;;;;;;;16.98;6.30;;;;;;;3.83;86.46;93628.19;5114173;28;20204;-72
2022/01/09 05:09:49;;;;;;;13.27;6.45;;;;;;;3.72;86.59;93632.25;5113101;28;20225;-72
2022/01/09 05:12:18;;;;;;;9.60;5.65;;;;;;;3.66;87.15;93633.50;5113811;28;20732;-72
2022/01/09 05:14:45;;;;;;;17.17;8.98;;;;;;;3.59;87.00;93636.59;5113533;28;20206;-72
2022/01/09 05:17:12;;;;;;;14.32;6.57;;;;;;;3.60;87.03;93637.41;5113858;28;20201;-73
2022/01/09 05:19:40;;;;;;;13.10;5.88;;;;;;;3.46;87.24;93630.25;5113331;28;20202;-72
2022/01/09 05:22:08;;;;;;;9.50;5.30;;;;;;;3.70;86.55;93639.81;5113437;28;20194;-72
2022/01/09 05:24:36;;;;;;;15.05;6.90;;;;;;;3.89;86.04;93627.75;5099917;28;20685;-71
2022/01/09 05:27:03;;;;;;;10.85;5.05;;;;;;;3.92;85.44;93621.00;5113650;28;20282;-72
2022/01/09 05:29:31;;;;;;;14.82;7.15;;;;;;;3.72;85.13;93626.91;5093336;28;20561;-72
2022/01/09 05:31:58;;;;;;;16.83;6.78;;;;;;;3.72;85.64;93621.53;5093088;28;20234;-71
2022/01/09 05:34:25;;;;;;;13.82;7.22;;;;;;;3.67;85.84;93624.38;5093125;28;20684;-72
2022/01/09 05:36:52;;;;;;;16.33;7.38;;;;;;;3.65;86.03;93613.97;5093105;28;20203;-71
2022/01/09 05:39:18;;;;;;;14.23;7.28;;;;;;;3.55;86.01;93611.56;5092427;28;20571;-72
2022/01/09 05:41:46;;;;;;;16.02;7.25;;;;;;;3.44;87.02;93621.72;5092568;28;20234;-72
2022/01/09 05:44:13;;;;;;;15.70;8.00;;;;;;;3.48;87.11;93612.00;5101402;28;20205;-72
2022/01/09 05:46:42;;;;;;;16.65;7.57;;;;;;;3.49;87.29;93613.59;5112971;28;20208;-72
2022/01/09 05:49:08;;;;;;;14.75;7.70;;;;;;;3.27;87.78;93610.97;5112896;28;20201;-72
2022/01/09 05:51:35;;;;;;;17.77;8.38;;;;;;;3.36;88.41;93619.81;5113517;28;20813;-72
2022/01/09 05:54:02;;;;;;;18.13;8.40;;;;;;;3.51;87.84;93624.78;5113132;28;20198;-71
2022/01/09 05:56:29;;;;;;;17.02;9.10;;;;;;;3.53;87.50;93627.94;5113563;28;20251;-72
2022/01/09 05:58:56;;;;;;;17.30;8.85;;;;;;;3.65;87.17;93622.00;5113142;28;20202;-72
2022/01/09 06:01:23;;;;;;;24.65;10.43;;;;;;;3.68;87.47;93615.25;5113063;28;20209;-72
2022/01/09 06:03:51;;;;;;;15.63;9.10;;;;;;;3.87;86.52;93615.78;5112718;28;20210;-72
2022/01/09 06:06:18;;;;;;;19.98;9.82;;;;;;;3.78;86.59;93614.97;5113281;28;20214;-72
2022/01/09 06:08:46;;;;;;;19.35;9.25;;;;;;;3.51;87.49;93603.34;5112937;28;20226;-72
2022/01/09 06:11:13;;;;;;;21.90;9.35;;;;;;;3.52;87.98;93612.97;5112891;28;20289;-72
2022/01/09 06:13:40;;;;;;;21.45;10.90;;;;;;;3.67;88.07;93613.66;5112291;28;20202;-71
2022/01/09 06:16:08;;;;;;;17.30;8.45;;;;;;;3.85;87.48;93610.72;5112648;28;20205;-72
2022/01/09 06:18:35;;;;;;;16.85;9.20;;;;;;;4.07;86.75;93614.41;5101754;28;20210;-73
2022/01/09 06:21:03;;;;;;;27.38;11.65;;;;;;;3.99;86.38;93604.44;5096766;28;20194;-72
2022/01/09 06:23:30;;;;;;;21.65;10.50;;;;;;;4.03;86.38;93590.13;5112748;28;20221;-72
2022/01/09 06:25:57;;;;;;;23.20;10.15;;;;;;;4.20;86.27;93605.47;5112925;28;20197;-71
2022/01/09 06:28:24;;;;;;;22.77;9.32;;;;;;;4.46;85.09;93598.25;5100920;28;20206;-72
2022/01/09 06:30:51;;;;;;;26.65;10.98;;;;;;;4.45;84.97;93602.03;5111186;28;20208;-73
2022/01/09 06:33:19;;;;;;;19.05;9.45;;;;;;;4.53;84.92;93603.13;5099714;28;20592;-73
2022/01/09 06:35:46;;;;;;;20.65;10.63;;;;;;;4.73;84.10;93591.78;5097489;28;20227;-72
2022/01/09 06:38:14;;;;;;;16.27;8.73;;;;;;;4.60;84.11;93592.72;5112470;28;20197;-72
2022/01/09 06:40:41;;;;;;;21.98;9.80;;;;;;;4.44;84.34;93599.66;5112107;28;20236;-72
2022/01/09 06:43:09;;;;;;;26.60;11.52;;;;;;;4.49;84.33;93602.19;5111959;28;20205;-72
2022/01/09 06:45:36;;;;;;;21.35;10.80;;;;;;;4.46;84.69;93602.81;5111571;28;20655;-73
2022/01/09 06:48:03;;;;;;;18.75;10.25;;;;;;;4.57;84.69;93599.50;5098460;28;20729;-73
2022/01/09 06:50:30;;;;;;;23.73;10.35;;;;;;;4.68;84.68;93583.88;5111906;28;20201;-73
2022/01/09 06:52:57;;;;;;;18.92;9.55;;;;;;;4.73;83.71;93591.00;5112164;28;20225;-72
2022/01/09 06:55:25;;;;;;;26.67;11.07;;;;;;;4.67;83.45;93595.72;5112411;28;20198;-73
2022/01/09 06:57:53;;;;;;;25.20;12.32;;;;;;;4.62;83.39;93585.97;5111588;28;20267;-73
2022/01/09 07:00:20;;;;;;;20.15;8.80;;;;;;;4.61;83.06;93591.63;5112249;28;20205;-73
2022/01/09 07:02:48;;;;;;;19.08;9.50;;;;;;;4.59;83.47;93599.19;5112171;28;20202;-72
2022/01/09 07:05:15;;;;;;;17.20;9.18;;;;;;;4.59;83.54;93596.50;5112013;28;20588;-72
2022/01/09 07:07:43;;;;;;;18.55;9.60;;;;;;;4.55;84.30;93595.56;5110337;28;20572;-72
2022/01/09 07:10:11;;;;;;;16.98;8.68;;;;;;;4.26;84.29;93586.22;5091381;28;20657;-72
2022/01/09 07:12:39;;;;;;;16.20;8.55;;;;;;;4.22;84.43;93587.19;5089435;28;20575;-72
2022/01/09 07:15:07;;;;;;;19.67;9.40;;;;;;;4.31;84.78;93595.22;5089492;28;20206;-72
2022/01/09 07:17:34;;;;;;;15.90;9.07;;;;;;;6.63;96.40;93591.09;5089338;28;20210;-72
2022/01/09 07:20:01;;;;;;;32.60;14.85;;;;;;;6.99;90.74;93593.94;5090357;28;20207;-72
2022/01/09 07:22:28;;;;;;;45.05;20.98;;;;;;;6.01;84.63;93602.56;5104778;28;20206;-72
2022/01/09 07:24:55;;;;;;;124.50;43.92;;;;;;;5.38;82.87;93604.16;5111572;28;20209;-72
2022/01/09 07:27:22;;;;;;;94.15;38.30;;;;;;;5.35;82.92;93599.41;5111226;28;20201;-72
2022/01/09 07:29:50;;;;;;;66.32;27.17;;;;;;;5.50;82.62;93600.81;5110871;28;20699;-72
2022/01/09 07:32:18;;;;;;;49.67;23.13;;;;;;;5.54;81.56;93610.59;5111358;28;20572;-73
2022/01/09 07:34:45;;;;;;;34.08;15.85;;;;;;;5.54;81.04;93610.59;5111160;28;20270;-72
2022/01/09 07:37:12;;;;;;;18.60;10.88;;;;;;;5.75;80.58;93617.94;5111171;28;20198;-71
2022/01/09 07:39:39;;;;;;;36.42;17.35;;;;;;;5.92;80.19;93609.84;5111554;28;20221;-73
2022/01/09 07:42:06;;;;;;;28.75;13.48;;;;;;;5.50;79.59;93604.28;5110873;28;20233;-71
2022/01/09 07:44:33;;;;;;;25.05;12.63;;;;;;;5.64;80.15;93604.88;5110399;28;20213;-72
2022/01/09 07:47:01;;;;;;;29.08;17.92;;;;;;;6.00;79.41;93600.97;5111140;28;20213;-72
2022/01/09 07:49:28;;;;;;;35.88;19.05;;;;;;;6.05;79.04;93598.06;5110971;28;20198;-72
2022/01/09 07:51:55;;;;;;;15.27;8.50;;;;;;;5.50;78.38;93598.91;5093732;28;20206;-72
2022/01/09 07:54:22;;;;;;;13.52;6.80;;;;;;;5.34;79.93;93600.53;5091097;28;20198;-72
2022/01/09 07:56:49;;;;;;;14.85;7.28;;;;;;;5.51;79.71;93597.78;5090761;28;20264;-72
2022/01/09 07:59:16;;;;;;;15.25;6.35;;;;;;;5.56;78.81;93597.63;5090942;28;20195;-73
2022/01/09 08:01:43;;;;;;;10.07;5.03;;;;;;;5.26;79.77;93593.28;5109373;28;20724;-73
2022/01/09 08:04:12;;;;;;;8.55;4.47;;;;;;;5.29;79.73;93581.91;5103885;28;20213;-72
2022/01/09 08:06:39;;;;;;;9.23;5.68;;;;;;;5.48;79.53;93574.25;5110626;28;20588;-75
2022/01/09 08:09:06;;;;;;;11.55;6.45;;;;;;;5.91;78.46;93586.75;5110632;28;20317;-72
2022/01/09 08:11:33;;;;;;;12.38;6.28;;;;;;;6.35;77.15;93585.41;5110045;28;20258;-73
2022/01/09 08:14:00;;;;;;;16.25;5.88;;;;;;;6.58;75.05;93583.19;5110137;28;20233;-71
2022/01/09 08:16:27;;;;;;;7.65;4.82;;;;;;;6.56;74.40;93577.38;5109989;28;20697;-72
2022/01/09 08:18:53;;;;;;;6.50;3.65;;;;;;;6.37;74.96;93559.00;5109694;28;20652;-72
2022/01/09 08:21:22;;;;;;;7.85;3.70;;;;;;;5.63;76.78;93544.19;5110771;28;20194;-72
2022/01/09 08:23:49;;;;;;;4.72;3.03;;;;;;;5.70;76.98;93552.56;5096714;28;20226;-73
2022/01/09 08:26:17;;;;;;;8.32;4.38;;;;;;;5.74;77.39;93554.59;5090209;28;20202;-72
2022/01/09 08:28:47;;;;;;;6.00;3.38;;;;;;;5.58;77.23;93552.44;5089889;28;20214;-71
2022/01/09 08:31:14;;;;;;;12.15;3.75;;;;;;;5.71;77.79;93559.50;5090198;28;20225;-71
2022/01/09 08:33:41;;;;;;;4.20;2.60;;;;;;;5.90;76.95;93552.94;5089683;28;20238;-71
2022/01/09 08:36:08;;;;;;;7.90;4.20;;;;;;;6.00;76.64;93552.59;5089995;28;20207;-71
2022/01/09 08:38:37;;;;;;;4.93;2.55;;;;;;;6.05;76.12;93544.31;5105264;28;20197;-73
2022/01/09 08:41:04;;;;;;;7.60;3.28;;;;;;;5.95;76.57;93550.06;5109847;28;20298;-71
2022/01/09 08:43:31;;;;;;;10.68;4.68;;;;;;;6.03;77.10;93538.47;5105536;28;20208;-71
2022/01/09 08:45:58;;;;;;;8.13;4.45;;;;;;;6.17;76.79;93547.09;5109093;28;20218;-71
2022/01/09 08:48:26;;;;;;;7.00;3.55;;;;;;;6.39;76.13;93549.47;5106533;28;20239;-72
2022/01/09 08:50:53;;;;;;;9.13;4.95;;;;;;;6.47;75.87;93544.34;5104667;28;20201;-72
2022/01/09 08:53:20;;;;;;;9.77;6.53;;;;;;;6.74;75.41;93546.50;5109800;28;20240;-72
2022/01/09 08:55:48;;;;;;;11.93;6.47;;;;;;;6.62;74.72;93549.16;5109947;28;20201;-71
2022/01/09 08:58:15;;;;;;;9.18;4.65;;;;;;;6.38;75.49;93547.13;5113102;28;20652;-71
2022/01/09 09:00:42;;;;;;;14.23;5.82;;;;;;;6.47;75.83;93541.66;5114123;28;20197;-72
2022/01/09 09:03:10;;;;;;;8.10;3.85;;;;;;;6.55;75.57;93532.75;5113436;28;20206;-72
2022/01/09 09:05:37;;;;;;;6.85;2.92;;;;;;;6.71;74.71;93531.00;5113250;28;20237;-72
2022/01/09 09:08:05;;;;;;;7.35;3.83;;;;;;;6.40;75.15;93521.47;5112931;28;20225;-71
2022/01/09 09:10:32;;;;;;;6.13;3.10;;;;;;;6.44;75.05;93502.75;5113884;28;20205;-71
2022/01/09 09:13:01;;;;;;;4.05;2.70;;;;;;;6.87;74.23;93520.44;5113329;28;20237;-72
2022/01/09 09:15:28;;;;;;;5.53;3.00;;;;;;;7.30;72.70;93511.91;5113914;28;20205;-72
2022/01/09 09:17:56;;;;;;;5.38;3.20;;;;;;;7.41;72.98;93507.66;5112958;28;20201;-72
2022/01/09 09:20:23;;;;;;;8.57;3.63;;;;;;;7.57;71.82;93495.09;5112902;28;20259;-72
2022/01/09 09:22:50;;;;;;;9.57;5.60;;;;;;;7.09;72.74;93501.22;5113511;28;20222;-73
2022/01/09 09:25:18;;;;;;;8.80;4.28;;;;;;;7.51;72.01;93491.09;5112676;28;20216;-72
2022/01/09 09:27:45;;;;;;;8.73;3.97;;;;;;;7.72;70.98;93474.78;5099054;28;20229;-72
2022/01/09 09:30:17;;;;;;;9.02;3.88;;;;;;;7.70;70.67;93475.13;5113795;28;20197;-72
2022/01/09 09:32:44;;;;;;;8.25;4.78;;;;;;;7.71;70.87;93460.53;5099906;28;20264;-73
2022/01/09 09:35:13;;;;;;;9.60;5.80;;;;;;;7.81;70.60;93454.66;5097542;28;20203;-72
2022/01/09 09:37:40;;;;;;;10.80;5.15;;;;;;;7.77;70.68;93450.31;5098924;28;20213;-72
2022/01/09 09:40:09;;;;;;;5.10;2.83;;;;;;;7.66;70.74;93449.97;5111123;28;20225;-72
2022/01/09 09:42:36;;;;;;;4.03;2.67;;;;;;;7.23;71.68;93447.84;5111355;28;20233;-71
2022/01/09 09:45:05;;;;;;;5.13;3.08;;;;;;;7.15;72.24;93446.03;5111510;28;20216;-71
2022/01/09 09:47:36;;;;;;;5.25;2.50;;;;;;;6.94;73.15;93440.72;5113312;28;20266;-72
2022/01/09 09:50:04;;;;;;;8.63;3.65;;;;;;;6.96;73.18;93435.81;5112070;28;20652;-73
2022/01/09 09:52:31;;;;;;;6.45;3.20;;;;;;;7.23;72.68;93430.91;5112807;28;20570;-73
2022/01/09 09:54:59;;;;;;;6.72;3.47;;;;;;;7.30;72.60;93434.59;5113102;28;20258;-73
2022/01/09 09:57:28;;;;;;;7.65;4.38;;;;;;;7.26;72.82;93430.19;5103663;28;20229;-73
2022/01/09 10:00:01;;;;;;;7.72;4.20;;;;;;;7.01;73.52;93435.56;5096420;28;20266;-72
2022/01/09 10:02:42;;;;;;;7.53;4.07;;;;;;;7.04;73.63;93440.28;5113173;28;20216;-72
2022/01/09 10:05:10;;;;;;;11.07;5.10;;;;;;;7.00;73.68;93423.22;5099470;28;20251;-73
2022/01/09 10:07:38;;;;;;;6.70;4.38;;;;;;;6.94;73.81;93432.66;5112429;28;20259;-72
2022/01/09 10:10:08;;;;;;;6.15;2.50;;;;;;;6.83;74.48;93418.06;5112917;28;20213;-73
2022/01/09 10:12:36;;;;;;;5.90;3.05;;;;;;;6.91;74.23;93425.25;5113053;28;20292;-73
2022/01/09 10:15:06;;;;;;;8.57;2.92;;;;;;;6.98;74.20;93425.47;5112800;28;20302;-73
2022/01/09 10:17:34;;;;;;;5.95;3.35;;;;;;;7.06;73.92;93421.91;5113101;28;20247;-72
2022/01/09 10:20:09;;;;;;;8.55;2.58;;;;;;;7.23;73.56;93415.53;5112551;28;20206;-73
2022/01/09 10:22:39;;;;;;;4.72;2.92;;;;;;;7.24;73.50;93421.69;5109197;28;20229;-72
2022/01/09 10:25:31;;;;;;;5.85;3.05;;;;;;;7.23;73.73;93422.81;5092134;28;20200;-73
2022/01/09 10:28:03;;;;;;;8.02;3.58;;;;;;;7.11;73.85;93413.59;5099382;28;20284;-73
2022/01/09 10:30:33;;;;;;;10.63;4.22;;;;;;;7.27;73.68;93413.72;5112739;28;20209;-72
2022/01/09 10:33:04;;;;;;;4.57;2.92;;;;;;;7.28;73.87;93396.44;5112605;28;20229;-72
2022/01/09 10:35:33;;;;;;;7.90;4.43;;;;;;;7.58;73.26;93398.91;5112719;28;20205;-73
2022/01/09 10:38:12;;;;;;;13.20;5.43;;;;;;;7.53;73.20;93397.19;5112277;28;20209;-73
2022/01/09 10:40:41;;;;;;;9.50;6.45;;;;;;;7.44;73.44;93388.47;5111905;28;20833;-72
2022/01/09 10:43:10;;;;;;;12.77;5.15;;;;;;;7.45;73.49;93390.81;5112227;28;20652;-71
2022/01/09 10:45:40;;;;;;;13.05;6.88;;;;;;;7.41;73.67;93386.44;5106948;28;20201;-72
2022/01/09 10:48:10;;;;;;;6.68;2.88;;;;;;;7.39;73.33;93380.59;5092425;28;20217;-72
2022/01/09 10:50:41;;;;;;;10.68;6.78;;;;;;;7.39;73.66;93370.63;5111067;28;20206;-71
2022/01/09 10:53:17;;;;;;;8.30;3.92;;;;;;;7.47;73.30;93375.09;5111776;28;20232;-71
2022/01/09 10:55:45;;;;;;;3.80;2.38;;;;;;;7.38;73.28;93379.06;5103427;28;20572;-73
2022/01/09 10:58:20;;;;;;;6.25;2.65;;;;;;;7.27;73.31;93383.31;5091182;28;20237;-73
2022/01/09 11:00:48;;;;;;;7.68;3.83;;;;;;;7.47;73.12;93377.81;5101807;28;20232;-73
2022/01/09 11:03:15;;;;;;;9.55;4.18;;;;;;;7.33;72.90;93360.41;5111408;28;20230;-73
2022/01/09 11:05:45;;;;;;;8.95;4.15;;;;;;;7.55;72.63;93368.00;5111475;28;20198;-72
2022/01/09 11:08:14;;;;;;;7.63;3.58;;;;;;;7.53;72.60;93364.09;5111747;28;20221;-73
2022/01/09 11:10:42;;;;;;;8.10;4.47;;;;;;;7.46;72.80;93370.06;5098635;28;20194;-73
2022/01/09 11:13:14;;;;;;;5.03;2.80;;;;;;;7.85;71.95;93366.63;5110727;28;20229;-74
2022/01/09 11:16:32;;;;;;;7.75;4.05;;;;;;;7.87;71.72;93357.41;5111521;28;20198;-75
2022/01/09 11:18:32;;;;;;;6.65;3.58;;;;;;;7.87;71.37;93363.59;5100553;28;20202;-73
2022/01/09 11:21:00;;;;;;;9.40;4.25;;;;;;;8.03;71.05;93347.47;5096494;28;20577;-73
2022/01/09 11:23:39;;;;;;;12.75;7.25;;;;;;;8.11;70.55;93350.00;5110123;28;20592;-73
2022/01/09 11:26:12;;;;;;;11.52;4.68;;;;;;;8.34;70.08;93344.88;5111274;28;20250;-75
2022/01/09 11:28:42;;;;;;;4.18;1.70;;;;;;;8.41;69.25;93347.78;5111003;28;20206;-77
2022/01/09 11:31:23;;;;;;;7.82;3.13;;;;;;;8.38;69.04;93345.75;5111716;28;20549;-77
2022/01/09 11:34:00;;;;;;;8.85;4.55;;;;;;;8.36;69.47;93337.22;5111384;28;20579;-76
2022/01/09 11:36:35;;;;;;;2.95;1.92;;;;;;;8.29;69.18;93338.94;5111285;28;20218;-76
2022/01/09 11:39:11;;;;;;;2.83;1.60;;;;;;;8.60;68.35;93327.44;5110780;28;20309;-75
2022/01/09 11:41:40;;;;;;;6.00;2.85;;;;;;;8.44;68.67;93333.59;5110609;28;20225;-74